Time;durP1;ratioP1;P1;durP2;ratioP2;P2;SDS_P1;SDS_P2;PMS_P1;PMS_P2;Temp;Humidity;BMP_temperature;BMP_pressure;BME280_temperature;BME280_humidity;BME280_pressure;Samples;Min_cycle;Max_cycle;Signal;HPM_P1;HPM_P2
2022/01/17 00:01:33;;;;;;;16.35;2.20;;;;;;;;;;5133181;27;20380;-74
2022/01/17 00:03:59;;;;;;;24.90;2.78;;;;;;;;;;5132621;27;20023;-74
2022/01/17 00:06:25;;;;;;;12.45;2.50;;;;;;;;;;5133058;27;20031;-75
2022/01/17 00:08:51;;;;;;;14.30;2.00;;;;;;;;;;5133047;27;20034;-75
2022/01/17 00:11:18;;;;;;;17.55;1.98;;;;;;;;;;5132856;27;20027;-74
2022/01/17 00:13:45;;;;;;;15.55;1.98;;;;;;;;;;5132521;27;20043;-74
2022/01/17 00:16:17;;;;;;;17.60;2.00;;;;;;;;;;5133043;27;20082;-75
2022/01/17 00:21:14;;;;;;;25.30;2.70;;;;;;;;;;5133046;27;20035;-75
2022/01/17 00:23:40;;;;;;;18.27;3.35;;;;;;;;;;5132731;27;20433;-74
2022/01/17 00:26:06;;;;;;;18.10;3.15;;;;;;;;;;5132797;27;20034;-74
2022/01/17 00:28:32;;;;;;;15.32;2.17;;;;;;;;;;5132721;27;20106;-74
2022/01/17 00:31:01;;;;;;;16.38;1.98;;;;;;;;;;5132504;27;20433;-74
2022/01/17 00:33:27;;;;;;;12.60;1.80;;;;;;;;;;5132623;28;20461;-74
2022/01/17 00:35:53;;;;;;;13.23;2.10;;;;;;;;;;5132680;28;20058;-74
2022/01/17 00:38:19;;;;;;;18.05;2.00;;;;;;;;;;5132543;28;20054;-74
2022/01/17 00:40:45;;;;;;;13.75;2.35;;;;;;;;;;5132565;28;20094;-74
2022/01/17 00:43:11;;;;;;;17.02;2.25;;;;;;;;;;5132434;28;20031;-74
2022/01/17 00:45:39;;;;;;;16.10;2.22;;;;;;;;;;5132655;28;20023;-74
2022/01/17 00:48:05;;;;;;;20.52;2.78;;;;;;;;;;5132628;28;20011;-74
2022/01/17 00:50:32;;;;;;;21.08;2.72;;;;;;;;;;5113949;28;20365;-74
2022/01/17 00:53:04;;;;;;;17.77;3.15;;;;;;;;;;5132407;28;20127;-74
2022/01/17 00:55:31;;;;;;;18.30;2.08;;;;;;;;;;5132528;28;20031;-74
2022/01/17 00:57:57;;;;;;;14.88;1.95;;;;;;;;;;5132088;28;20023;-74
2022/01/17 01:00:23;;;;;;;14.18;2.42;;;;;;;;;;5134512;27;20021;-74
2022/01/17 01:02:49;;;;;;;25.95;2.30;;;;;;;;;;5136628;27;20035;-74
2022/01/17 01:05:16;;;;;;;14.77;2.38;;;;;;;;;;5136457;27;20030;-74
2022/01/17 01:07:43;;;;;;;22.80;2.63;;;;;;;;;;5136431;27;20023;-74
2022/01/17 01:10:12;;;;;;;17.42;2.25;;;;;;;;;;5136853;27;20035;-74
2022/01/17 01:12:39;;;;;;;21.27;2.95;;;;;;;;;;5136116;27;20444;-74
2022/01/17 01:15:11;;;;;;;17.10;2.33;;;;;;;;;;5136366;27;20027;-74
2022/01/17 01:17:48;;;;;;;17.83;2.70;;;;;;;;;;5136486;27;20015;-74
2022/01/17 01:28:30;;;;;;;16.52;3.03;;;;;;;;;;5136088;27;20125;-74
2022/01/17 01:30:58;;;;;;;17.00;2.10;;;;;;;;;;5135721;27;20019;-74
2022/01/17 01:33:37;;;;;;;14.57;2.55;;;;;;;;;;5136179;27;20035;-74
2022/01/17 01:36:13;;;;;;;15.38;1.95;;;;;;;;;;5136030;27;20078;-74
2022/01/17 01:38:41;;;;;;;18.58;2.28;;;;;;;;;;5135904;27;20083;-74
2022/01/17 01:41:07;;;;;;;18.75;2.83;;;;;;;;;;5135686;27;20015;-74
2022/01/17 01:43:33;;;;;;;15.15;2.30;;;;;;;;;;5135622;27;20088;-74
2022/01/17 01:46:01;;;;;;;19.02;3.17;;;;;;;;;;5135726;27;20038;-74
2022/01/17 01:48:28;;;;;;;15.38;1.75;;;;;;;;;;5135552;27;20030;-74
2022/01/17 01:50:54;;;;;;;23.83;3.15;;;;;;;;;;5135553;27;20046;-74
2022/01/17 01:53:22;;;;;;;15.80;2.63;;;;;;;;;;5135390;27;20031;-74
2022/01/17 01:55:50;;;;;;;17.45;2.30;;;;;;;;;;5134611;27;20061;-74
2022/01/17 01:58:17;;;;;;;20.20;2.83;;;;;;;;;;5133890;27;20015;-74
2022/01/17 02:00:43;;;;;;;20.17;1.90;;;;;;;;;;5134146;27;20084;-74
2022/01/17 02:03:09;;;;;;;18.17;2.03;;;;;;;;;;5134012;27;20027;-74
2022/01/17 02:05:35;;;;;;;19.42;2.10;;;;;;;;;;5134002;27;20027;-74
2022/01/17 02:08:01;;;;;;;16.42;2.28;;;;;;;;;;5133887;27;20033;-74
2022/01/17 02:10:27;;;;;;;26.50;2.15;;;;;;;;;;5134184;27;20031;-74
2022/01/17 02:12:53;;;;;;;10.52;1.67;;;;;;;;;;5134105;27;20084;-74
2022/01/17 02:15:19;;;;;;;12.90;1.45;;;;;;;;;;5134604;27;20019;-74
2022/01/17 02:17:53;;;;;;;17.27;3.05;;;;;;;;;;5135187;27;20178;-74
2022/01/17 02:20:21;;;;;;;21.52;2.50;;;;;;;;;;5135035;27;20023;-74
2022/01/17 02:22:48;;;;;;;21.20;3.03;;;;;;;;;;5135109;27;20023;-74
2022/01/17 02:25:14;;;;;;;13.10;1.90;;;;;;;;;;5134881;27;20077;-74
2022/01/17 02:27:40;;;;;;;20.80;2.03;;;;;;;;;;5134919;27;20055;-74
2022/01/17 02:30:07;;;;;;;17.83;2.20;;;;;;;;;;5134818;27;20415;-74
2022/01/17 02:32:33;;;;;;;14.32;2.38;;;;;;;;;;5134760;27;20119;-74
2022/01/17 02:35:16;;;;;;;18.27;1.73;;;;;;;;;;5116351;27;20019;-74
2022/01/17 02:37:42;;;;;;;16.23;2.45;;;;;;;;;;5134791;27;20377;-74
2022/01/17 02:40:09;;;;;;;12.60;2.03;;;;;;;;;;5134752;27;20037;-74
2022/01/17 02:42:36;;;;;;;19.23;2.45;;;;;;;;;;5134535;27;20106;-74
2022/01/17 02:45:11;;;;;;;15.90;1.90;;;;;;;;;;5134598;27;20027;-74
2022/01/17 02:47:37;;;;;;;13.43;2.55;;;;;;;;;;5134710;27;20023;-74
2022/01/17 02:50:03;;;;;;;14.68;2.10;;;;;;;;;;5116128;27;20046;-74
2022/01/17 02:52:29;;;;;;;12.50;1.45;;;;;;;;;;5134382;27;20047;-74
2022/01/17 02:54:55;;;;;;;17.25;2.15;;;;;;;;;;5134424;27;20512;-74
2022/01/17 02:57:21;;;;;;;16.35;1.60;;;;;;;;;;5130727;27;20370;-74
2022/01/17 02:59:47;;;;;;;21.08;3.35;;;;;;;;;;5125158;27;20027;-74
2022/01/17 03:02:13;;;;;;;17.00;2.10;;;;;;;;;;5134325;27;20115;-74
2022/01/17 03:04:39;;;;;;;18.23;2.08;;;;;;;;;;5134314;27;20023;-74
2022/01/17 03:07:05;;;;;;;13.52;1.85;;;;;;;;;;5134214;27;20031;-74
2022/01/17 03:09:41;;;;;;;10.77;1.55;;;;;;;;;;5134377;27;20058;-74
2022/01/17 03:12:07;;;;;;;16.42;2.28;;;;;;;;;;5134017;27;20050;-74
2022/01/17 03:14:33;;;;;;;14.52;2.30;;;;;;;;;;5115398;27;20039;-74
2022/01/17 03:16:59;;;;;;;14.90;2.13;;;;;;;;;;5134097;27;20031;-74
2022/01/17 03:19:25;;;;;;;14.63;2.15;;;;;;;;;;5133980;27;20102;-74
2022/01/17 03:21:51;;;;;;;15.98;1.90;;;;;;;;;;5133666;27;20027;-74
2022/01/17 03:24:17;;;;;;;18.92;2.10;;;;;;;;;;5133505;27;20030;-74
2022/01/17 03:26:43;;;;;;;14.50;1.80;;;;;;;;;;5133640;27;20114;-74
2022/01/17 03:29:09;;;;;;;18.85;1.90;;;;;;;;;;5133625;27;20029;-74
2022/01/17 03:31:35;;;;;;;20.77;2.53;;;;;;;;;;5133459;27;20028;-74
2022/01/17 03:34:01;;;;;;;23.00;1.88;;;;;;;;;;5115189;27;20026;-74
2022/01/17 03:36:28;;;;;;;16.25;1.80;;;;;;;;;;5133690;27;20019;-74
2022/01/17 03:38:55;;;;;;;12.02;2.40;;;;;;;;;;5133621;27;20329;-74
2022/01/17 03:41:22;;;;;;;17.35;1.95;;;;;;;;;;5133408;27;20031;-74
2022/01/17 03:43:48;;;;;;;18.58;3.05;;;;;;;;;;5133304;27;20785;-74
2022/01/17 03:46:14;;;;;;;18.55;1.58;;;;;;;;;;5133494;27;20023;-74
2022/01/17 03:48:40;;;;;;;16.48;2.17;;;;;;;;;;5133423;27;20031;-74
2022/01/17 03:51:06;;;;;;;13.73;1.60;;;;;;;;;;5133372;27;20024;-74
2022/01/17 03:53:32;;;;;;;20.58;2.20;;;;;;;;;;5133304;27;20034;-74
2022/01/17 03:55:58;;;;;;;15.75;2.95;;;;;;;;;;5133365;27;20111;-74
2022/01/17 03:58:27;;;;;;;20.25;1.67;;;;;;;;;;5120680;27;20062;-74
2022/01/17 04:00:55;;;;;;;18.80;2.00;;;;;;;;;;5112661;28;20031;-74
2022/01/17 04:03:21;;;;;;;20.00;1.70;;;;;;;;;;5112590;28;20027;-74
2022/01/17 04:05:47;;;;;;;23.08;2.15;;;;;;;;;;5112693;28;20028;-74
2022/01/17 04:08:13;;;;;;;17.50;2.50;;;;;;;;;;5112368;28;20023;-74
2022/01/17 04:10:40;;;;;;;17.77;1.63;;;;;;;;;;5114798;27;20085;-74
2022/01/17 04:13:06;;;;;;;18.77;2.13;;;;;;;;;;5132664;27;20039;-74
2022/01/17 04:15:33;;;;;;;25.70;2.15;;;;;;;;;;5133059;27;20098;-74
2022/01/17 04:18:00;;;;;;;21.10;2.55;;;;;;;;;;5133118;27;20023;-74
2022/01/17 04:20:27;;;;;;;17.33;1.95;;;;;;;;;;5132913;27;20457;-74
2022/01/17 04:22:55;;;;;;;24.38;2.13;;;;;;;;;;5132926;27;20037;-74
2022/01/17 04:25:22;;;;;;;21.67;1.95;;;;;;;;;;5132694;27;20023;-74
2022/01/17 04:27:49;;;;;;;24.67;2.42;;;;;;;;;;5132813;27;20031;-74
2022/01/17 04:30:15;;;;;;;19.60;2.90;;;;;;;;;;5124032;27;20030;-74
2022/01/17 04:32:42;;;;;;;17.77;2.10;;;;;;;;;;5112201;28;20532;-74
2022/01/17 04:35:09;;;;;;;15.63;1.88;;;;;;;;;;5111737;28;20035;-74
2022/01/17 04:37:35;;;;;;;24.75;2.40;;;;;;;;;;5112208;28;20045;-74
2022/01/17 04:40:01;;;;;;;21.10;2.03;;;;;;;;;;5112051;28;20058;-74
2022/01/17 04:42:28;;;;;;;20.35;1.85;;;;;;;;;;5111967;28;20027;-74
2022/01/17 04:45:10;;;;;;;25.27;2.83;;;;;;;;;;5112108;28;20517;-74
2022/01/17 04:47:37;;;;;;;22.05;2.22;;;;;;;;;;5112248;28;20525;-74
2022/01/17 04:50:07;;;;;;;25.35;3.15;;;;;;;;;;5112029;28;20071;-74
2022/01/17 04:52:35;;;;;;;16.70;1.77;;;;;;;;;;5110486;28;20034;-74
2022/01/17 04:55:02;;;;;;;22.73;2.78;;;;;;;;;;5111974;28;20020;-74
2022/01/17 04:57:28;;;;;;;15.60;2.33;;;;;;;;;;5116308;28;20019;-74
2022/01/17 04:59:54;;;;;;;22.13;2.22;;;;;;;;;;5132423;28;20042;-74
2022/01/17 05:02:20;;;;;;;19.80;1.92;;;;;;;;;;5132591;28;20335;-74
2022/01/17 05:04:46;;;;;;;17.73;2.00;;;;;;;;;;5132561;28;20043;-74
2022/01/17 05:07:14;;;;;;;24.98;2.78;;;;;;;;;;5132384;28;20026;-74
2022/01/17 05:09:41;;;;;;;19.63;2.88;;;;;;;;;;5132392;28;20108;-74
2022/01/17 05:12:07;;;;;;;14.27;2.00;;;;;;;;;;5132255;28;20023;-74
2022/01/17 05:14:33;;;;;;;13.82;1.90;;;;;;;;;;5113713;28;20039;-74
2022/01/17 05:17:57;;;;;;;16.08;3.92;;;;;;;;;;5132456;28;20038;-74
2022/01/17 05:19:49;;;;;;;19.80;2.80;;;;;;;;;;5121085;28;20031;-74
2022/01/17 05:22:18;;;;;;;26.02;2.50;;;;;;;;;;5132200;28;20015;-74
2022/01/17 05:24:44;;;;;;;26.30;2.60;;;;;;;;;;5132207;28;20027;-74
2022/01/17 05:27:11;;;;;;;15.80;2.40;;;;;;;;;;5132119;28;20362;-74
2022/01/17 05:29:37;;;;;;;22.95;3.28;;;;;;;;;;5132103;28;20027;-74
2022/01/17 05:32:04;;;;;;;18.92;3.00;;;;;;;;;;5132049;28;20023;-74
2022/01/17 05:34:30;;;;;;;19.92;2.70;;;;;;;;;;5131920;28;20465;-74
2022/01/17 05:36:56;;;;;;;27.38;2.75;;;;;;;;;;5132084;28;20073;-74
2022/01/17 05:39:22;;;;;;;20.75;2.75;;;;;;;;;;5132145;28;20377;-74
2022/01/17 05:41:48;;;;;;;25.35;2.85;;;;;;;;;;5131895;28;20034;-74
2022/01/17 05:44:14;;;;;;;22.75;3.08;;;;;;;;;;5131805;28;20027;-74
2022/01/17 05:46:40;;;;;;;35.00;3.15;;;;;;;;;;5132947;27;20098;-74
2022/01/17 05:49:06;;;;;;;31.42;4.22;;;;;;;;;;5135682;27;20453;-74
2022/01/17 05:51:31;;;;;;;18.58;3.10;;;;;;;;;;5135597;27;20076;-74
2022/01/17 05:53:57;;;;;;;21.25;3.10;;;;;;;;;;5117003;27;20021;-74
2022/01/17 05:56:23;;;;;;;21.33;3.90;;;;;;;;;;5135571;27;20411;-74
2022/01/17 05:58:49;;;;;;;33.22;3.75;;;;;;;;;;5135267;27;20084;-74
2022/01/17 06:01:16;;;;;;;25.45;3.75;;;;;;;;;;5135482;27;20035;-74
2022/01/17 06:03:42;;;;;;;28.40;4.22;;;;;;;;;;5135363;27;20035;-74
2022/01/17 06:06:08;;;;;;;26.92;4.70;;;;;;;;;;5135471;27;20399;-74
2022/01/17 06:08:34;;;;;;;38.83;4.72;;;;;;;;;;5116743;27;20121;-74
2022/01/17 06:11:01;;;;;;;27.77;4.30;;;;;;;;;;5116538;27;20130;-74
2022/01/17 06:13:27;;;;;;;22.75;5.03;;;;;;;;;;5116438;27;20047;-74
2022/01/17 06:15:53;;;;;;;41.03;5.22;;;;;;;;;;5135117;27;20031;-74
2022/01/17 06:18:19;;;;;;;34.60;6.22;;;;;;;;;;5135143;27;20042;-74
2022/01/17 06:20:45;;;;;;;28.83;5.65;;;;;;;;;;5116702;27;20358;-74
2022/01/17 06:23:11;;;;;;;32.03;6.85;;;;;;;;;;5134933;27;20059;-74
2022/01/17 06:25:37;;;;;;;29.48;6.25;;;;;;;;;;5135089;27;20027;-74
2022/01/17 06:28:03;;;;;;;30.13;6.18;;;;;;;;;;5134442;27;20058;-74
2022/01/17 06:30:29;;;;;;;32.05;6.35;;;;;;;;;;5134463;27;20039;-74
2022/01/17 06:32:55;;;;;;;39.45;6.93;;;;;;;;;;5134393;27;20031;-74
2022/01/17 06:35:21;;;;;;;43.67;7.05;;;;;;;;;;5134450;27;20011;-74
2022/01/17 06:37:48;;;;;;;43.78;7.97;;;;;;;;;;5116237;27;20381;-74
2022/01/17 06:40:14;;;;;;;31.80;7.82;;;;;;;;;;5134621;27;20019;-74
2022/01/17 06:42:41;;;;;;;29.42;8.13;;;;;;;;;;5134551;27;20023;-77
2022/01/17 06:45:07;;;;;;;29.63;8.27;;;;;;;;;;5134436;27;20030;-76
2022/01/17 06:47:34;;;;;;;32.58;9.00;;;;;;;;;;5134646;27;20130;-75
2022/01/17 06:50:00;;;;;;;42.65;9.38;;;;;;;;;;5123812;27;20027;-75
2022/01/17 06:52:26;;;;;;;39.53;9.55;;;;;;;;;;5122998;27;20039;-75
2022/01/17 06:54:53;;;;;;;46.40;10.88;;;;;;;;;;5108866;27;20025;-75
2022/01/17 06:57:20;;;;;;;40.28;10.52;;;;;;;;;;5127471;27;20016;-74
2022/01/17 06:59:46;;;;;;;46.53;13.23;;;;;;;;;;5124455;27;20067;-75
2022/01/17 07:02:12;;;;;;;37.13;11.70;;;;;;;;;;5128332;27;20020;-77
2022/01/17 07:04:38;;;;;;;41.05;14.15;;;;;;;;;;5130959;27;20045;-76
2022/01/17 07:07:04;;;;;;;44.67;12.43;;;;;;;;;;5134202;27;20504;-77
2022/01/17 07:09:30;;;;;;;46.97;13.90;;;;;;;;;;5133753;27;20023;-77
2022/01/17 07:11:59;;;;;;;38.05;14.98;;;;;;;;;;5133955;27;20043;-77
2022/01/17 07:14:25;;;;;;;50.63;14.45;;;;;;;;;;5134001;27;20088;-77
2022/01/17 07:16:51;;;;;;;50.42;14.15;;;;;;;;;;5133634;27;20038;-75
2022/01/17 07:19:17;;;;;;;55.97;16.33;;;;;;;;;;5134075;27;20023;-75
2022/01/17 07:21:43;;;;;;;44.88;15.70;;;;;;;;;;5133405;27;20034;-74
2022/01/17 07:24:09;;;;;;;50.97;17.58;;;;;;;;;;5133757;27;20027;-75
2022/01/17 07:26:35;;;;;;;50.03;16.75;;;;;;;;;;5133842;27;20027;-75
2022/01/17 07:29:02;;;;;;;51.92;17.50;;;;;;;;;;5133704;27;20110;-75
2022/01/17 07:31:28;;;;;;;49.72;16.52;;;;;;;;;;5133702;27;20428;-75
2022/01/17 07:33:54;;;;;;;52.92;16.23;;;;;;;;;;5133691;27;20402;-75
2022/01/17 07:36:20;;;;;;;52.28;15.73;;;;;;;;;;5133684;27;20098;-75
2022/01/17 07:38:47;;;;;;;51.08;16.38;;;;;;;;;;5133541;27;20020;-75
2022/01/17 07:41:13;;;;;;;42.47;17.25;;;;;;;;;;5133566;27;20027;-74
2022/01/17 07:43:41;;;;;;;43.58;16.88;;;;;;;;;;5133485;27;20070;-75
2022/01/17 07:46:17;;;;;;;47.42;17.45;;;;;;;;;;5133494;27;20015;-75
2022/01/17 07:48:57;;;;;;;45.83;16.83;;;;;;;;;;5133413;27;20444;-75
2022/01/17 07:51:23;;;;;;;43.00;18.63;;;;;;;;;;5133453;27;20023;-75
2022/01/17 07:53:49;;;;;;;49.45;16.83;;;;;;;;;;5114656;27;20031;-75
2022/01/17 07:56:15;;;;;;;48.20;17.00;;;;;;;;;;5133306;27;20448;-75
2022/01/17 07:58:41;;;;;;;49.22;16.77;;;;;;;;;;5118365;27;20023;-74
2022/01/17 08:01:07;;;;;;;43.20;16.30;;;;;;;;;;5114584;27;20027;-75
2022/01/17 08:03:33;;;;;;;58.72;15.35;;;;;;;;;;5133113;27;20052;-75
2022/01/17 08:06:00;;;;;;;44.45;14.80;;;;;;;;;;5132846;27;20023;-74
2022/01/17 08:08:26;;;;;;;38.20;15.10;;;;;;;;;;5132363;27;20164;-75
2022/01/17 08:10:52;;;;;;;52.10;15.18;;;;;;;;;;5131906;27;20112;-74
2022/01/17 08:13:18;;;;;;;47.72;13.10;;;;;;;;;;5132373;27;20015;-74
2022/01/17 08:15:45;;;;;;;40.97;14.23;;;;;;;;;;5132793;27;20028;-74
2022/01/17 08:18:11;;;;;;;40.15;12.32;;;;;;;;;;5133055;27;20024;-78
2022/01/17 08:20:37;;;;;;;40.72;12.77;;;;;;;;;;5114621;27;20031;-73
2022/01/17 08:23:04;;;;;;;43.25;13.23;;;;;;;;;;5132506;27;20039;-74
2022/01/17 08:25:30;;;;;;;41.03;11.43;;;;;;;;;;5132681;27;20134;-74
2022/01/17 08:27:56;;;;;;;40.47;13.75;;;;;;;;;;5114043;27;20023;-74
2022/01/17 08:30:23;;;;;;;45.00;12.15;;;;;;;;;;5132450;27;20362;-74
2022/01/17 08:32:50;;;;;;;42.60;9.85;;;;;;;;;;5132487;28;20053;-74
2022/01/17 08:35:16;;;;;;;29.42;9.35;;;;;;;;;;5132598;28;20126;-74
2022/01/17 08:37:42;;;;;;;34.70;9.82;;;;;;;;;;5132672;28;20050;-74
2022/01/17 08:40:08;;;;;;;39.33;9.15;;;;;;;;;;5132469;28;20437;-74
2022/01/17 08:42:36;;;;;;;36.03;8.40;;;;;;;;;;5132381;28;20038;-74
2022/01/17 08:45:02;;;;;;;35.58;8.13;;;;;;;;;;5132527;28;20106;-74
2022/01/17 08:47:28;;;;;;;39.35;7.57;;;;;;;;;;5132536;28;20023;-74
2022/01/17 08:49:54;;;;;;;29.73;6.65;;;;;;;;;;5132540;28;20583;-74
2022/01/17 08:52:20;;;;;;;34.72;7.68;;;;;;;;;;5132317;28;20027;-74
2022/01/17 08:54:47;;;;;;;25.52;7.03;;;;;;;;;;5132434;28;20057;-75
2022/01/17 08:57:14;;;;;;;30.90;6.43;;;;;;;;;;5129952;28;20015;-74
2022/01/17 08:59:41;;;;;;;31.33;6.40;;;;;;;;;;5117840;28;20092;-74
2022/01/17 09:02:07;;;;;;;30.13;5.85;;;;;;;;;;5132082;28;20031;-74
2022/01/17 09:04:35;;;;;;;36.13;5.30;;;;;;;;;;5126982;27;20023;-74
2022/01/17 09:07:01;;;;;;;27.70;5.30;;;;;;;;;;5126999;27;20691;-74
2022/01/17 09:09:27;;;;;;;27.48;5.13;;;;;;;;;;5130778;27;20357;-74
2022/01/17 09:11:53;;;;;;;33.95;6.72;;;;;;;;;;5130802;27;20035;-74
2022/01/17 09:14:19;;;;;;;33.80;6.95;;;;;;;;;;5131982;28;20047;-74
2022/01/17 09:16:45;;;;;;;31.90;5.28;;;;;;;;;;5132261;28;20031;-74
2022/01/17 09:19:12;;;;;;;31.67;5.32;;;;;;;;;;5132209;27;20118;-74
2022/01/17 09:21:38;;;;;;;30.58;5.30;;;;;;;;;;5134677;27;20030;-74
2022/01/17 09:24:04;;;;;;;32.25;4.20;;;;;;;;;;5135961;27;20461;-74
2022/01/17 09:26:30;;;;;;;30.27;4.40;;;;;;;;;;5136130;27;20023;-74
2022/01/17 09:28:56;;;;;;;26.15;4.50;;;;;;;;;;5135976;27;20535;-75
2022/01/17 09:31:22;;;;;;;29.40;5.03;;;;;;;;;;5135236;27;20034;-74
2022/01/17 09:33:48;;;;;;;33.95;4.68;;;;;;;;;;5134770;27;20044;-74
2022/01/17 09:36:15;;;;;;;28.95;4.75;;;;;;;;;;5134983;27;20116;-73
2022/01/17 09:38:41;;;;;;;31.80;4.65;;;;;;;;;;5135365;27;20068;-74
2022/01/17 09:41:09;;;;;;;26.52;4.85;;;;;;;;;;5135323;27;20019;-73
2022/01/17 09:43:35;;;;;;;34.83;4.80;;;;;;;;;;5135254;27;20384;-73
2022/01/17 09:46:01;;;;;;;29.92;4.57;;;;;;;;;;5134660;27;20032;-73
2022/01/17 09:48:35;;;;;;;38.85;6.90;;;;;;;;;;5116155;27;20049;-73
2022/01/17 09:51:18;;;;;;;34.13;7.03;;;;;;;;;;5116164;27;20011;-73
2022/01/17 09:53:44;;;;;;;41.88;6.63;;;;;;;;;;5135304;27;20318;-77
2022/01/17 09:56:13;;;;;;;29.33;6.63;;;;;;;;;;5135373;27;20461;-75
2022/01/17 09:58:40;;;;;;;32.15;6.18;;;;;;;;;;5135159;27;20119;-75
2022/01/17 10:01:07;;;;;;;32.10;6.22;;;;;;;;;;5135209;27;20030;-74
2022/01/17 10:03:34;;;;;;;33.05;4.90;;;;;;;;;;5135305;27;20027;-74
2022/01/17 10:06:00;;;;;;;30.88;4.43;;;;;;;;;;5135532;27;20019;-74
2022/01/17 10:08:27;;;;;;;30.77;5.10;;;;;;;;;;5135165;27;20084;-74
2022/01/17 10:10:57;;;;;;;25.30;4.15;;;;;;;;;;5135120;27;20023;-74
2022/01/17 10:13:30;;;;;;;30.17;4.00;;;;;;;;;;5134798;27;20106;-75
2022/01/17 10:16:04;;;;;;;33.03;4.30;;;;;;;;;;5116668;27;20023;-75
2022/01/17 10:18:33;;;;;;;32.03;4.13;;;;;;;;;;5135051;27;20122;-75
2022/01/17 10:21:05;;;;;;;30.17;4.85;;;;;;;;;;5135144;27;20023;-75
2022/01/17 10:29:10;;;;;;;33.83;5.07;;;;;;;;;;5071012;28;20064;-74
2022/01/17 10:37:09;;;;;;;31.20;3.88;;;;;;;;;;5070231;28;20445;-74
2022/01/17 10:39:37;;;;;;;25.63;4.55;;;;;;;;;;5070924;28;20048;-74
2022/01/17 10:42:26;;;;;;;25.55;4.07;;;;;;;;;;5071104;28;20056;-75
2022/01/17 10:44:52;;;;;;;28.10;4.13;;;;;;;;;;5070977;28;20508;-75
2022/01/17 10:47:19;;;;;;;37.50;4.15;;;;;;;;;;5054197;28;20041;-75
2022/01/17 10:49:53;;;;;;;26.85;5.30;;;;;;;;;;5070902;28;20335;-75
2022/01/17 10:52:37;;;;;;;26.88;4.57;;;;;;;;;;5070828;28;20040;-75
2022/01/17 10:55:06;;;;;;;32.50;4.05;;;;;;;;;;5070518;28;20036;-75
2022/01/17 10:57:39;;;;;;;39.20;4.63;;;;;;;;;;5070696;28;20032;-76
2022/01/17 11:00:08;;;;;;;24.50;3.33;;;;;;;;;;5070454;28;20058;-74
2022/01/17 11:02:34;;;;;;;29.25;3.50;;;;;;;;;;5070739;28;20024;-74
2022/01/17 11:05:03;;;;;;;31.92;3.90;;;;;;;;;;5074940;27;20025;-74
2022/01/17 11:07:29;;;;;;;32.17;4.07;;;;;;;;;;5133715;27;20042;-75
2022/01/17 11:09:57;;;;;;;27.33;3.63;;;;;;;;;;5115567;27;20050;-74
2022/01/17 11:12:28;;;;;;;26.23;3.60;;;;;;;;;;5133849;27;20027;-75
2022/01/17 11:14:57;;;;;;;29.08;4.38;;;;;;;;;;5133499;27;20721;-75
2022/01/17 11:17:33;;;;;;;26.63;3.67;;;;;;;;;;5112493;27;20398;-75
2022/01/17 11:22:29;;;;;;;26.98;3.72;;;;;;;;;;5133527;27;20124;-76
2022/01/17 11:24:57;;;;;;;26.27;3.72;;;;;;;;;;5133296;27;20110;-76
2022/01/17 11:27:23;;;;;;;23.80;3.83;;;;;;;;;;5133355;27;20043;-76
2022/01/17 11:29:50;;;;;;;35.28;4.03;;;;;;;;;;5133073;27;20483;-76
2022/01/17 11:32:16;;;;;;;27.10;4.30;;;;;;;;;;5133244;27;20137;-76
2022/01/17 11:34:43;;;;;;;23.40;3.03;;;;;;;;;;5130484;27;20015;-75
2022/01/17 11:37:11;;;;;;;26.17;4.18;;;;;;;;;;5133097;27;20018;-75
2022/01/17 11:39:44;;;;;;;22.17;3.30;;;;;;;;;;5133064;27;20027;-76
2022/01/17 11:42:28;;;;;;;32.40;4.88;;;;;;;;;;5132914;27;20106;-77
2022/01/17 11:44:54;;;;;;;30.40;5.25;;;;;;;;;;5132332;27;20407;-78
2022/01/17 11:47:40;;;;;;;29.90;4.32;;;;;;;;;;5133666;27;20054;-80
2022/01/17 11:50:24;;;;;;;25.15;4.13;;;;;;;;;;5133387;27;20437;-79
2022/01/17 11:52:50;;;;;;;30.67;4.05;;;;;;;;;;5133940;27;20031;-79
2022/01/17 11:55:35;;;;;;;25.20;3.80;;;;;;;;;;5133525;27;20038;-78
2022/01/17 11:58:19;;;;;;;22.83;3.72;;;;;;;;;;5111553;28;20469;-79
2022/01/17 12:00:51;;;;;;;27.52;3.28;;;;;;;;;;5112936;28;20027;-79
2022/01/17 12:03:18;;;;;;;28.40;3.90;;;;;;;;;;5113127;28;20354;-79
2022/01/17 12:05:44;;;;;;;30.02;3.95;;;;;;;;;;5112596;28;20444;-79
2022/01/17 12:08:11;;;;;;;23.25;3.13;;;;;;;;;;5094296;28;20023;-78
2022/01/17 12:10:41;;;;;;;28.33;4.40;;;;;;;;;;5113057;28;20107;-79
2022/01/17 12:13:24;;;;;;;28.40;3.42;;;;;;;;;;5112546;28;20019;-79
2022/01/17 12:16:21;;;;;;;31.92;3.92;;;;;;;;;;5094434;28;20056;-79
2022/01/17 12:18:48;;;;;;;19.90;3.33;;;;;;;;;;5112626;28;20482;-79
2022/01/17 12:21:18;;;;;;;25.55;3.60;;;9.50;99.90;;;;;;5112584;28;20030;-77
2022/01/17 12:23:43;;;;;;;36.30;4.78;;;9.60;99.90;;;;;;5094342;28;20018;-77
2022/01/17 12:26:27;;;;;;;35.90;3.42;;;9.60;99.90;;;;;;5112441;28;20451;-77
2022/01/17 12:28:55;;;;;;;22.60;3.47;;;9.60;99.90;;;;;;5112165;28;20016;-77
2022/01/17 12:31:45;;;;;;;26.50;3.38;;;9.60;99.90;;;;;;5112607;28;20027;-78
2022/01/17 12:34:23;;;;;;;28.00;3.38;;;9.60;99.90;;;;;;5112853;28;20381;-78
2022/01/17 12:36:49;;;;;;;33.03;3.58;;;9.70;99.90;;;;;;5112756;28;20054;-78
2022/01/17 12:39:20;;;;;;;28.88;3.35;;;9.60;99.90;;;;;;5131951;28;20171;-73
2022/01/17 12:41:49;;;;;;;32.20;3.47;;;9.70;99.90;;;;;;5133007;28;20027;-76
2022/01/17 12:44:24;;;;;;;33.05;4.43;;;;;;;;;;5132787;28;20023;-74
2022/01/17 12:46:52;;;;;;;34.47;4.18;;;;;;;;;;5130593;28;20019;-74
2022/01/17 12:49:19;;;;;;;31.17;3.50;;;;;;;;;;5132468;28;20485;-74
2022/01/17 12:51:47;;;;;;;30.83;4.22;;;;;;;;;;5136422;27;20099;-74
2022/01/17 12:54:15;;;;;;;28.63;3.58;;;;;;;;;;5102936;28;20023;-76
2022/01/17 12:56:45;;;;;;;27.85;4.28;;;;;;;;;;5125030;27;20036;-74
2022/01/17 12:59:12;;;;;;;29.88;3.50;;;;;;;;;;5124145;27;20024;-74
2022/01/17 13:02:04;;;;;;;31.58;5.28;;;;;;;;;;5122359;27;20020;-74
2022/01/17 13:04:32;;;;;;;27.58;4.28;;;;;;;;;;5103806;27;20088;-74
2022/01/17 13:06:58;;;;;;;34.83;4.50;;;;;;;;;;5130414;27;20019;-74
2022/01/17 13:09:24;;;;;;;28.70;3.55;;;;;;;;;;5123754;27;20032;-74
2022/01/17 13:11:57;;;;;;;25.33;3.30;;;;;;;;;;5126073;27;20470;-74
2022/01/17 13:14:23;;;;;;;28.45;3.95;;;;;;;;;;5122816;27;20442;-74
2022/01/17 13:16:51;;;;;;;33.92;3.40;;;9.80;99.90;;;;;;5129318;27;20046;-73
2022/01/17 13:19:17;;;;;;;33.83;4.38;;;9.80;99.90;;;;;;5133659;27;20051;-75
2022/01/17 13:21:45;;;;;;;29.10;3.30;;;9.80;99.90;;;;;;5128381;27;20043;-75
2022/01/17 13:26:44;;;;;;;32.03;3.70;;;9.60;99.90;;;;;;5124097;27;20123;-73
2022/01/17 13:29:11;;;;;;;29.40;4.05;;;9.60;99.90;;;;;;5127345;27;20038;-73
2022/01/17 13:31:38;;;;;;;34.15;4.63;;;;;;;;;;5126108;27;20473;-77
2022/01/17 13:34:24;;;;;;;31.52;4.40;;;;;;;;;;5122231;27;20028;-75
2022/01/17 13:36:52;;;;;;;36.83;4.93;;;;;;;;;;5129423;27;20466;-75
2022/01/17 13:39:19;;;;;;;35.75;4.10;;;;;;;;;;5126540;27;20051;-74
2022/01/17 13:41:50;;;;;;;33.05;4.50;;;;;;;;;;5124510;27;20030;-76
2022/01/17 13:44:20;;;;;;;35.70;4.00;;;;;;;;;;5123761;27;20063;-76
2022/01/17 13:46:57;;;;;;;29.95;3.97;;;9.50;99.90;;;;;;5126069;27;20093;-74
2022/01/17 13:49:24;;;;;;;30.67;5.32;;;9.60;99.90;;;;;;5132783;27;20019;-73
2022/01/17 13:51:49;;;;;;;37.33;4.43;;;9.60;99.90;;;;;;5131113;27;20046;-75
2022/01/17 13:54:28;;;;;;;45.78;4.78;;;9.70;99.90;;;;;;5131504;27;20023;-73
2022/01/17 13:56:54;;;;;;;36.13;5.35;;;9.70;99.90;;;;;;5131223;27;20031;-73
2022/01/17 13:59:20;;;;;;;32.40;4.57;;;9.70;99.90;;;;;;5130602;27;20019;-73
2022/01/17 14:01:46;;;;;;;33.28;5.07;;;9.60;99.90;;;;;;5138670;27;20319;-73
2022/01/17 14:04:30;;;;;;;41.38;6.65;;;9.60;99.90;;;;;;5135025;27;20023;-73
2022/01/17 14:06:56;;;;;;;27.27;3.95;;;9.70;99.90;;;;;;5134750;27;20026;-73
2022/01/17 14:09:33;;;;;;;27.05;3.35;;;9.70;99.90;;;;;;5135860;27;20072;-72
2022/01/17 14:11:59;;;;;;;44.97;4.90;;;9.70;99.90;;;;;;5135218;27;20719;-72
2022/01/17 14:14:27;;;;;;;29.13;3.95;;;9.70;99.90;;;;;;5135255;27;20091;-75
2022/01/17 14:16:53;;;;;;;21.73;3.60;;;9.60;99.90;;;;;;5135597;27;20019;-73
2022/01/17 14:19:19;;;;;;;41.20;5.00;;;9.70;99.90;;;;;;5135423;27;20027;-73
2022/01/17 14:22:07;;;;;;;34.00;5.65;;;9.90;99.90;;;;;;5135515;27;20023;-73
2022/01/17 14:24:43;;;;;;;42.33;6.80;;;9.90;99.90;;;;;;5135277;27;20068;-73
2022/01/17 14:27:18;;;;;;;36.45;5.55;;;10.00;99.90;;;;;;5135232;27;20030;-73
2022/01/17 14:29:45;;;;;;;34.85;6.05;;;;;;;;;;5128574;27;20161;-74
2022/01/17 14:32:12;;;;;;;39.03;4.75;;;9.80;99.90;;;;;;5114482;28;20031;-74
2022/01/17 14:34:40;;;;;;;38.50;4.82;;;9.80;99.90;;;;;;5114263;28;20034;-75
2022/01/17 14:37:05;;;;;;;29.00;4.85;;;9.80;99.90;;;;;;5134214;27;20481;-74
2022/01/17 14:39:43;;;;;;;37.92;4.95;;;9.70;99.90;;;;;;5125773;27;20035;-75
2022/01/17 14:42:29;;;;;;;37.42;4.85;;;9.60;99.90;;;;;;5114225;28;20035;-75
2022/01/17 14:44:58;;;;;;;29.10;4.35;;;9.80;99.90;;;;;;5114427;27;20151;-74
2022/01/17 14:47:25;;;;;;;40.25;6.20;;;10.00;99.90;;;;;;5114365;28;20019;-74
2022/01/17 14:49:54;;;;;;;34.42;4.03;;;10.00;99.90;;;;;;5114276;28;20129;-75